Close Search

Base
°C
Summit
°C
24hr Snow
cm

WEATHER AT A GLANCE

Image Slideshow

Gnorm the Powder Gnome

Revelstoke Mountain Resort -  Gnorm the Powder Gnome Webcam

RMR Village

Revelstoke Mountain Resort -  RMR Village Webcam

Top of The Stoke

Revelstoke Mountain Resort -  Top of The Stoke Webcam

Top of Stellar

Revelstoke Mountain Resort -  Top of Stellar Webcam

Mackenzie Outpost

Revelstoke Mountain Resort -  Mackenzie Outpost Webcam

Ripper

Revelstoke Mountain Resort -  Ripper Webcam
New Snow
cm
24hr Snow
cm
48hr Snow
cm
Base
°C
Summit
°C
Wind (Summit)
km/h

Today's Forecast

Subpeak Weather

Time Avg. Air Temp Dew Point Avg. Rel Humidity Avg. 2 Min Wind Speed Max Gust Velocity MGV Time MGV Direction Avg. Spot Wind Velocity
2022-12-09 05:00:00-13° C-13° C100%13 km/h15 km/h04:57:00S13 km/h
04:00:00-13° C-13° C100%17 km/h20 km/h03:59:00S16 km/h
03:00:00-12° C-12° C100%14 km/h15 km/h02:59:00SE13 km/h
02:00:00-12° C-12° C100%19 km/h21 km/h01:59:00S18 km/h
01:00:00-12° C-12° C100%18 km/h22 km/h00:56:00S17 km/h
00:00:00-12° C-12° C100%25 km/h27 km/h00:00:00S24 km/h
23:00:00-12° C-12° C100%32 km/h37 km/h22:56:00SE29 km/h
22:00:00-12° C-12° C100%26 km/h34 km/h21:56:00SE26 km/h
21:00:00-12° C-12° C100%26 km/h37 km/h20:56:00SE23 km/h
20:00:00-12° C-12° C100%28 km/h36 km/h20:00:00SE28 km/h
19:00:00-11° C-12° C100%28 km/h41 km/h18:58:00SE30 km/h
18:00:00-11° C-11° C100%23 km/h31 km/h18:00:00SE24 km/h
17:00:00-11° C-11° C100%30 km/h35 km/h16:59:00SE26 km/h
16:00:00-11° C-11° C100%28 km/h39 km/h16:00:00SE26 km/h
15:00:00-11° C-11° C100%35 km/h47 km/h14:56:00SE38 km/h
14:00:00-11° C-11° C100%30 km/h45 km/h13:57:00SE31 km/h
13:00:00-11° C-11° C100%27 km/h42 km/h12:56:00SE26 km/h
12:00:00-11° C-11° C100%35 km/h53 km/h11:57:00SE37 km/h
11:00:00-11° C-11° C100%32 km/h48 km/h10:58:00SE29 km/h
10:00:00-11° C-12° C100%39 km/h53 km/h09:58:00SE39 km/h
09:00:00-12° C-12° C100%34 km/h47 km/h08:57:00SE33 km/h
08:00:00-12° C-12° C100%36 km/h66 km/h07:56:00SE37 km/h
07:00:00-12° C-12° C100%31 km/h44 km/h06:58:00SE31 km/h
06:00:00-12° C-12° C100%22 km/h37 km/h05:57:00SE24 km/h
Time Avg. Air Temp Dew Point Avg. Rel Humidity Avg. 2 Min Wind Speed Max Gust Velocity MGV Time MGV Direction Avg. Spot Wind Velocity
2022-12-09 05:00:00-13° C-13° C100%13 km/h15 km/h04:57:00S13 km/h
04:55:00-13° C-13° C100%13 km/h14 km/h04:54:00S13 km/h
04:50:00-13° C-13° C100%12 km/h14 km/h04:47:00S13 km/h
04:45:00-13° C-13° C100%13 km/h15 km/h04:42:00SE14 km/h
04:40:00-13° C-13° C100%13 km/h16 km/h04:36:00S14 km/h
04:35:00-13° C-13° C100%12 km/h14 km/h04:34:00SE12 km/h
04:30:00-13° C-13° C100%13 km/h16 km/h04:26:00SE13 km/h
04:25:00-13° C-13° C100%14 km/h15 km/h04:22:00SE14 km/h
04:20:00-13° C-13° C100%14 km/h17 km/h04:18:00SE14 km/h
04:15:00-13° C-13° C100%15 km/h17 km/h04:13:00S16 km/h
04:10:00-13° C-13° C100%15 km/h17 km/h04:07:00S16 km/h
04:05:00-13° C-13° C100%17 km/h20 km/h04:05:00S17 km/h
04:00:00-13° C-13° C100%17 km/h20 km/h03:59:00S16 km/h